sensor_id;sensor_type;location;lat;lon;timestamp;temperature;humidity
67777;DHT22;54576;52.020;5.536;2022-11-11T00:01:08;9.80;99.90
67777;DHT22;54576;52.020;5.536;2022-11-11T00:03:35;9.80;99.90
67777;DHT22;54576;52.020;5.536;2022-11-11T00:06:06;9.90;99.90
67777;DHT22;54576;52.020;5.536;2022-11-11T00:08:33;9.90;99.90
67777;DHT22;54576;52.020;5.536;2022-11-11T00:11:00;9.90;99.90
67777;DHT22;54576;52.020;5.536;2022-11-11T00:13:28;10.00;99.90
67777;DHT22;54576;52.020;5.536;2022-11-11T00:15:54;10.10;99.90
67777;DHT22;54576;52.020;5.536;2022-11-11T00:18:23;10.10;99.90
67777;DHT22;54576;52.020;5.536;2022-11-11T00:21:17;10.10;99.90
67777;DHT22;54576;52.020;5.536;2022-11-11T00:24:02;10.10;99.90
67777;DHT22;54576;52.020;5.536;2022-11-11T00:26:48;10.20;99.90
67777;DHT22;54576;52.020;5.536;2022-11-11T00:29:15;10.20;99.90
67777;DHT22;54576;52.020;5.536;2022-11-11T00:31:40;10.30;99.90
67777;DHT22;54576;52.020;5.536;2022-11-11T00:34:26;10.20;99.90
67777;DHT22;54576;52.020;5.536;2022-11-11T00:36:52;10.30;99.90
67777;DHT22;54576;52.020;5.536;2022-11-11T00:39:19;10.30;99.90
67777;DHT22;54576;52.020;5.536;2022-11-11T00:41:45;10.30;99.90
67777;DHT22;54576;52.020;5.536;2022-11-11T00:44:16;10.40;99.90
67777;DHT22;54576;52.020;5.536;2022-11-11T00:46:42;10.40;99.90
67777;DHT22;54576;52.020;5.536;2022-11-11T00:49:28;10.40;99.90
67777;DHT22;54576;52.020;5.536;2022-11-11T00:52:12;10.40;99.90
67777;DHT22;54576;52.020;5.536;2022-11-11T00:54:40;10.40;99.90
67777;DHT22;54576;52.020;5.536;2022-11-11T00:57:07;10.50;99.90
67777;DHT22;54576;52.020;5.536;2022-11-11T00:59:33;10.50;99.90
67777;DHT22;54576;52.020;5.536;2022-11-11T01:02:02;10.50;99.90
67777;DHT22;54576;52.020;5.536;2022-11-11T01:04:27;10.50;99.90
67777;DHT22;54576;52.020;5.536;2022-11-11T01:06:55;10.50;99.90
67777;DHT22;54576;52.020;5.536;2022-11-11T01:09:22;10.50;99.90
67777;DHT22;54576;52.020;5.536;2022-11-11T01:11:48;10.50;99.90
67777;DHT22;54576;52.020;5.536;2022-11-11T01:14:15;10.50;99.90
67777;DHT22;54576;52.020;5.536;2022-11-11T01:16:42;10.50;99.90
67777;DHT22;54576;52.020;5.536;2022-11-11T01:19:08;10.50;99.90
67777;DHT22;54576;52.020;5.536;2022-11-11T01:21:34;10.50;99.90
67777;DHT22;54576;52.020;5.536;2022-11-11T01:24:04;10.50;99.90
67777;DHT22;54576;52.020;5.536;2022-11-11T01:26:30;10.50;99.90
67777;DHT22;54576;52.020;5.536;2022-11-11T01:28:55;10.50;99.90
67777;DHT22;54576;52.020;5.536;2022-11-11T01:31:24;10.50;99.90
67777;DHT22;54576;52.020;5.536;2022-11-11T01:33:53;10.50;99.90
67777;DHT22;54576;52.020;5.536;2022-11-11T01:36:24;10.50;99.90
67777;DHT22;54576;52.020;5.536;2022-11-11T01:38:53;10.60;99.90
67777;DHT22;54576;52.020;5.536;2022-11-11T01:41:22;10.60;99.90
67777;DHT22;54576;52.020;5.536;2022-11-11T01:44:18;10.60;99.90
67777;DHT22;54576;52.020;5.536;2022-11-11T01:46:59;10.60;99.90
67777;DHT22;54576;52.020;5.536;2022-11-11T01:52:25;10.60;99.90
67777;DHT22;54576;52.020;5.536;2022-11-11T01:55:07;10.60;99.90
67777;DHT22;54576;52.020;5.536;2022-11-11T01:57:40;10.60;99.90
67777;DHT22;54576;52.020;5.536;2022-11-11T02:00:11;10.60;99.90
67777;DHT22;54576;52.020;5.536;2022-11-11T02:02:40;10.60;99.90
67777;DHT22;54576;52.020;5.536;2022-11-11T02:05:10;10.60;99.90
67777;DHT22;54576;52.020;5.536;2022-11-11T02:08:03;10.60;99.90
67777;DHT22;54576;52.020;5.536;2022-11-11T02:10:32;10.60;99.90
67777;DHT22;54576;52.020;5.536;2022-11-11T02:12:59;10.60;99.90
67777;DHT22;54576;52.020;5.536;2022-11-11T02:15:45;10.60;99.90
67777;DHT22;54576;52.020;5.536;2022-11-11T02:18:14;10.60;99.90
67777;DHT22;54576;52.020;5.536;2022-11-11T02:20:42;10.60;99.90
67777;DHT22;54576;52.020;5.536;2022-11-11T02:23:21;10.60;99.90
67777;DHT22;54576;52.020;5.536;2022-11-11T02:25:52;10.60;99.90
67777;DHT22;54576;52.020;5.536;2022-11-11T02:28:20;10.60;99.90
67777;DHT22;54576;52.020;5.536;2022-11-11T02:30:46;10.60;99.90
67777;DHT22;54576;52.020;5.536;2022-11-11T02:33:12;10.60;99.90
67777;DHT22;54576;52.020;5.536;2022-11-11T02:35:47;10.60;99.90
67777;DHT22;54576;52.020;5.536;2022-11-11T02:38:20;10.60;99.90
67777;DHT22;54576;52.020;5.536;2022-11-11T02:40:46;10.60;99.90
67777;DHT22;54576;52.020;5.536;2022-11-11T02:43:51;10.60;99.90
67777;DHT22;54576;52.020;5.536;2022-11-11T02:46:17;10.60;99.90
67777;DHT22;54576;52.020;5.536;2022-11-11T02:48:42;10.60;99.90
67777;DHT22;54576;52.020;5.536;2022-11-11T02:51:10;10.60;99.90
67777;DHT22;54576;52.020;5.536;2022-11-11T02:53:37;10.60;99.90
67777;DHT22;54576;52.020;5.536;2022-11-11T02:56:03;10.60;99.90
67777;DHT22;54576;52.020;5.536;2022-11-11T02:58:29;10.60;99.90
67777;DHT22;54576;52.020;5.536;2022-11-11T03:00:56;10.60;99.90
67777;DHT22;54576;52.020;5.536;2022-11-11T03:03:25;10.60;99.90
67777;DHT22;54576;52.020;5.536;2022-11-11T03:05:50;10.50;99.90
67777;DHT22;54576;52.020;5.536;2022-11-11T03:08:17;10.50;99.90
67777;DHT22;54576;52.020;5.536;2022-11-11T03:10:44;10.50;99.90
67777;DHT22;54576;52.020;5.536;2022-11-11T03:13:10;10.50;99.90
67777;DHT22;54576;52.020;5.536;2022-11-11T03:15:36;10.50;99.90
67777;DHT22;54576;52.020;5.536;2022-11-11T03:18:02;10.50;99.90
67777;DHT22;54576;52.020;5.536;2022-11-11T03:20:29;10.50;99.90
67777;DHT22;54576;52.020;5.536;2022-11-11T03:23:16;10.50;99.90
67777;DHT22;54576;52.020;5.536;2022-11-11T03:25:46;10.50;99.90
67777;DHT22;54576;52.020;5.536;2022-11-11T03:28:18;10.40;99.90
67777;DHT22;54576;52.020;5.536;2022-11-11T03:30:46;10.40;99.90
67777;DHT22;54576;52.020;5.536;2022-11-11T03:33:14;10.50;99.90
67777;DHT22;54576;52.020;5.536;2022-11-11T03:35:40;10.40;99.90
67777;DHT22;54576;52.020;5.536;2022-11-11T03:38:09;10.40;99.90
67777;DHT22;54576;52.020;5.536;2022-11-11T03:40:44;10.40;99.90
67777;DHT22;54576;52.020;5.536;2022-11-11T03:43:12;10.40;99.90
67777;DHT22;54576;52.020;5.536;2022-11-11T03:45:38;10.40;99.90
67777;DHT22;54576;52.020;5.536;2022-11-11T03:48:04;10.40;99.90
67777;DHT22;54576;52.020;5.536;2022-11-11T03:50:31;10.40;99.90
67777;DHT22;54576;52.020;5.536;2022-11-11T03:52:57;10.40;99.90
67777;DHT22;54576;52.020;5.536;2022-11-11T03:55:24;10.40;99.90
67777;DHT22;54576;52.020;5.536;2022-11-11T03:57:50;10.40;99.90
67777;DHT22;54576;52.020;5.536;2022-11-11T04:00:39;10.40;99.90
67777;DHT22;54576;52.020;5.536;2022-11-11T04:03:18;10.40;99.90
67777;DHT22;54576;52.020;5.536;2022-11-11T04:06:04;10.50;99.90
67777;DHT22;54576;52.020;5.536;2022-11-11T04:08:49;10.40;99.90
67777;DHT22;54576;52.020;5.536;2022-11-11T04:11:40;10.50;99.90
67777;DHT22;54576;52.020;5.536;2022-11-11T04:14:11;10.40;99.90
67777;DHT22;54576;52.020;5.536;2022-11-11T04:16:56;10.40;99.90
67777;DHT22;54576;52.020;5.536;2022-11-11T04:19:22;10.40;99.90
67777;DHT22;54576;52.020;5.536;2022-11-11T04:22:21;10.40;99.90
67777;DHT22;54576;52.020;5.536;2022-11-11T04:24:48;10.40;99.90
67777;DHT22;54576;52.020;5.536;2022-11-11T04:27:32;10.40;99.90
67777;DHT22;54576;52.020;5.536;2022-11-11T04:29:58;10.40;99.90
67777;DHT22;54576;52.020;5.536;2022-11-11T04:32:25;10.40;99.90
67777;DHT22;54576;52.020;5.536;2022-11-11T04:35:11;10.40;99.90
67777;DHT22;54576;52.020;5.536;2022-11-11T04:37:48;10.40;99.90
67777;DHT22;54576;52.020;5.536;2022-11-11T04:40:15;10.40;99.90
67777;DHT22;54576;52.020;5.536;2022-11-11T04:42:59;10.40;99.90
67777;DHT22;54576;52.020;5.536;2022-11-11T04:45:29;10.40;99.90
67777;DHT22;54576;52.020;5.536;2022-11-11T04:48:10;10.40;99.90
67777;DHT22;54576;52.020;5.536;2022-11-11T04:50:42;10.40;99.90
67777;DHT22;54576;52.020;5.536;2022-11-11T04:53:12;10.40;99.90
67777;DHT22;54576;52.020;5.536;2022-11-11T04:55:38;10.40;99.90
67777;DHT22;54576;52.020;5.536;2022-11-11T04:58:26;10.40;99.90
67777;DHT22;54576;52.020;5.536;2022-11-11T05:00:52;10.40;99.90
67777;DHT22;54576;52.020;5.536;2022-11-11T05:03:18;10.40;99.90
67777;DHT22;54576;52.020;5.536;2022-11-11T05:08:44;10.30;99.90
67777;DHT22;54576;52.020;5.536;2022-11-11T05:11:30;10.30;99.90
67777;DHT22;54576;52.020;5.536;2022-11-11T05:13:57;10.30;99.90
67777;DHT22;54576;52.020;5.536;2022-11-11T05:17:03;10.30;99.90
67777;DHT22;54576;52.020;5.536;2022-11-11T05:19:47;10.30;99.90
67777;DHT22;54576;52.020;5.536;2022-11-11T05:22:42;10.30;99.90
67777;DHT22;54576;52.020;5.536;2022-11-11T05:25:10;10.20;99.90
67777;DHT22;54576;52.020;5.536;2022-11-11T05:30:18;10.10;99.90
67777;DHT22;54576;52.020;5.536;2022-11-11T05:32:44;10.10;99.90
67777;DHT22;54576;52.020;5.536;2022-11-11T05:35:10;10.00;99.90
67777;DHT22;54576;52.020;5.536;2022-11-11T05:37:40;10.00;99.90
67777;DHT22;54576;52.020;5.536;2022-11-11T05:40:06;9.90;99.90
67777;DHT22;54576;52.020;5.536;2022-11-11T05:42:32;9.90;99.90
67777;DHT22;54576;52.020;5.536;2022-11-11T05:44:57;9.80;99.90
67777;DHT22;54576;52.020;5.536;2022-11-11T05:47:23;9.80;99.90
67777;DHT22;54576;52.020;5.536;2022-11-11T05:49:49;9.70;99.90
67777;DHT22;54576;52.020;5.536;2022-11-11T05:52:15;9.70;99.90
67777;DHT22;54576;52.020;5.536;2022-11-11T05:54:42;9.70;99.90
67777;DHT22;54576;52.020;5.536;2022-11-11T05:57:08;9.70;99.90
67777;DHT22;54576;52.020;5.536;2022-11-11T05:59:33;9.60;99.90
67777;DHT22;54576;52.020;5.536;2022-11-11T06:01:59;9.60;99.90
67777;DHT22;54576;52.020;5.536;2022-11-11T06:04:25;9.60;99.90
67777;DHT22;54576;52.020;5.536;2022-11-11T06:06:50;9.60;99.90
67777;DHT22;54576;52.020;5.536;2022-11-11T06:09:16;9.60;99.90
67777;DHT22;54576;52.020;5.536;2022-11-11T06:11:42;9.60;99.90
67777;DHT22;54576;52.020;5.536;2022-11-11T06:14:07;9.60;99.90
67777;DHT22;54576;52.020;5.536;2022-11-11T06:16:33;9.60;99.90
67777;DHT22;54576;52.020;5.536;2022-11-11T06:18:59;9.60;99.90
67777;DHT22;54576;52.020;5.536;2022-11-11T06:21:25;9.60;99.90
67777;DHT22;54576;52.020;5.536;2022-11-11T06:23:52;9.60;99.90
67777;DHT22;54576;52.020;5.536;2022-11-11T06:26:18;9.60;99.90
67777;DHT22;54576;52.020;5.536;2022-11-11T06:28:48;9.60;99.90
67777;DHT22;54576;52.020;5.536;2022-11-11T06:31:25;9.60;99.90
67777;DHT22;54576;52.020;5.536;2022-11-11T06:33:51;9.70;99.90
67777;DHT22;54576;52.020;5.536;2022-11-11T06:36:19;9.70;99.90
67777;DHT22;54576;52.020;5.536;2022-11-11T06:38:46;9.70;99.90
67777;DHT22;54576;52.020;5.536;2022-11-11T06:41:12;9.70;99.90
67777;DHT22;54576;52.020;5.536;2022-11-11T06:43:38;9.70;99.90
67777;DHT22;54576;52.020;5.536;2022-11-11T06:46:04;9.70;99.90
67777;DHT22;54576;52.020;5.536;2022-11-11T06:48:30;9.70;99.90
67777;DHT22;54576;52.020;5.536;2022-11-11T06:51:04;9.60;99.90
67777;DHT22;54576;52.020;5.536;2022-11-11T06:53:30;9.60;99.90
67777;DHT22;54576;52.020;5.536;2022-11-11T06:55:55;9.60;99.90
67777;DHT22;54576;52.020;5.536;2022-11-11T06:58:22;9.60;99.90
67777;DHT22;54576;52.020;5.536;2022-11-11T07:00:49;9.60;99.90
67777;DHT22;54576;52.020;5.536;2022-11-11T07:03:17;9.60;99.90
67777;DHT22;54576;52.020;5.536;2022-11-11T07:05:43;9.70;99.90
67777;DHT22;54576;52.020;5.536;2022-11-11T07:08:12;9.70;99.90
67777;DHT22;54576;52.020;5.536;2022-11-11T07:10:39;9.70;99.90
67777;DHT22;54576;52.020;5.536;2022-11-11T07:13:10;9.80;99.90
67777;DHT22;54576;52.020;5.536;2022-11-11T07:15:36;9.80;99.90
67777;DHT22;54576;52.020;5.536;2022-11-11T07:18:02;9.80;99.90
67777;DHT22;54576;52.020;5.536;2022-11-11T07:20:28;9.70;99.90
67777;DHT22;54576;52.020;5.536;2022-11-11T07:22:54;9.70;99.90
67777;DHT22;54576;52.020;5.536;2022-11-11T07:25:22;9.70;99.90
67777;DHT22;54576;52.020;5.536;2022-11-11T07:27:48;9.70;99.90
67777;DHT22;54576;52.020;5.536;2022-11-11T07:30:14;9.80;99.90
67777;DHT22;54576;52.020;5.536;2022-11-11T07:32:46;9.80;99.90
67777;DHT22;54576;52.020;5.536;2022-11-11T07:35:13;9.80;99.90
67777;DHT22;54576;52.020;5.536;2022-11-11T07:37:40;9.80;99.90
67777;DHT22;54576;52.020;5.536;2022-11-11T07:40:06;9.80;99.90
67777;DHT22;54576;52.020;5.536;2022-11-11T07:42:35;9.80;99.90
67777;DHT22;54576;52.020;5.536;2022-11-11T07:45:01;9.80;99.90
67777;DHT22;54576;52.020;5.536;2022-11-11T07:47:27;9.80;99.90
67777;DHT22;54576;52.020;5.536;2022-11-11T07:49:52;9.80;99.90
67777;DHT22;54576;52.020;5.536;2022-11-11T07:52:18;9.90;99.90
67777;DHT22;54576;52.020;5.536;2022-11-11T07:54:43;9.90;99.90
67777;DHT22;54576;52.020;5.536;2022-11-11T07:57:09;9.90;99.90
67777;DHT22;54576;52.020;5.536;2022-11-11T07:59:34;10.00;99.90
67777;DHT22;54576;52.020;5.536;2022-11-11T08:02:03;10.00;99.90
67777;DHT22;54576;52.020;5.536;2022-11-11T08:04:29;10.00;99.90
67777;DHT22;54576;52.020;5.536;2022-11-11T08:06:54;10.00;99.90
67777;DHT22;54576;52.020;5.536;2022-11-11T08:09:20;10.00;99.90
67777;DHT22;54576;52.020;5.536;2022-11-11T08:11:45;9.90;99.90
67777;DHT22;54576;52.020;5.536;2022-11-11T08:14:29;9.90;99.90
67777;DHT22;54576;52.020;5.536;2022-11-11T08:16:55;10.00;99.90
67777;DHT22;54576;52.020;5.536;2022-11-11T08:19:20;10.00;99.90
67777;DHT22;54576;52.020;5.536;2022-11-11T08:21:46;9.90;99.90
67777;DHT22;54576;52.020;5.536;2022-11-11T08:24:11;9.90;99.90
67777;DHT22;54576;52.020;5.536;2022-11-11T08:26:37;9.90;99.90
67777;DHT22;54576;52.020;5.536;2022-11-11T08:29:03;9.90;99.90
67777;DHT22;54576;52.020;5.536;2022-11-11T08:31:28;9.90;99.90
67777;DHT22;54576;52.020;5.536;2022-11-11T08:33:54;9.90;99.90
67777;DHT22;54576;52.020;5.536;2022-11-11T08:36:20;9.90;99.90
67777;DHT22;54576;52.020;5.536;2022-11-11T08:38:47;9.90;99.90
67777;DHT22;54576;52.020;5.536;2022-11-11T08:41:13;9.90;99.90
67777;DHT22;54576;52.020;5.536;2022-11-11T08:43:38;9.90;99.90
67777;DHT22;54576;52.020;5.536;2022-11-11T08:46:04;9.90;99.90
67777;DHT22;54576;52.020;5.536;2022-11-11T08:48:30;9.90;99.90
67777;DHT22;54576;52.020;5.536;2022-11-11T08:50:56;9.90;99.90
67777;DHT22;54576;52.020;5.536;2022-11-11T08:53:22;10.00;99.90
67777;DHT22;54576;52.020;5.536;2022-11-11T08:55:48;10.00;99.90
67777;DHT22;54576;52.020;5.536;2022-11-11T08:58:14;10.10;99.90
67777;DHT22;54576;52.020;5.536;2022-11-11T09:00:41;10.10;99.90
67777;DHT22;54576;52.020;5.536;2022-11-11T09:03:09;10.10;99.90
67777;DHT22;54576;52.020;5.536;2022-11-11T09:05:38;10.10;99.90
67777;DHT22;54576;52.020;5.536;2022-11-11T09:08:05;10.10;99.90
67777;DHT22;54576;52.020;5.536;2022-11-11T09:10:33;10.10;99.90
67777;DHT22;54576;52.020;5.536;2022-11-11T09:12:59;10.20;99.90
67777;DHT22;54576;52.020;5.536;2022-11-11T09:15:26;10.30;99.90
67777;DHT22;54576;52.020;5.536;2022-11-11T09:17:52;10.30;99.90
67777;DHT22;54576;52.020;5.536;2022-11-11T09:20:18;10.40;99.90
67777;DHT22;54576;52.020;5.536;2022-11-11T09:22:45;10.40;99.90
67777;DHT22;54576;52.020;5.536;2022-11-11T09:25:11;10.50;99.90
67777;DHT22;54576;52.020;5.536;2022-11-11T09:27:39;10.50;99.90
67777;DHT22;54576;52.020;5.536;2022-11-11T09:30:06;10.60;99.90
67777;DHT22;54576;52.020;5.536;2022-11-11T09:32:32;10.60;99.90
67777;DHT22;54576;52.020;5.536;2022-11-11T09:34:58;10.70;99.90
67777;DHT22;54576;52.020;5.536;2022-11-11T09:37:24;10.80;99.90
67777;DHT22;54576;52.020;5.536;2022-11-11T09:39:50;10.80;99.90
67777;DHT22;54576;52.020;5.536;2022-11-11T09:45:13;10.90;99.90
67777;DHT22;54576;52.020;5.536;2022-11-11T09:50:30;10.90;99.90
67777;DHT22;54576;52.020;5.536;2022-11-11T09:55:57;11.00;99.90
67777;DHT22;54576;52.020;5.536;2022-11-11T09:58:24;11.00;99.90
67777;DHT22;54576;52.020;5.536;2022-11-11T10:01:04;11.00;99.90
67777;DHT22;54576;52.020;5.536;2022-11-11T10:03:38;11.10;99.90
67777;DHT22;54576;52.020;5.536;2022-11-11T10:06:26;11.10;99.90
67777;DHT22;54576;52.020;5.536;2022-11-11T10:14:03;11.10;99.90
67777;DHT22;54576;52.020;5.536;2022-11-11T10:19:41;11.10;99.90
67777;DHT22;54576;52.020;5.536;2022-11-11T10:22:22;11.20;99.90
67777;DHT22;54576;52.020;5.536;2022-11-11T10:27:27;11.20;99.90
67777;DHT22;54576;52.020;5.536;2022-11-11T10:29:53;11.20;99.90
67777;DHT22;54576;52.020;5.536;2022-11-11T10:32:32;11.30;99.90
67777;DHT22;54576;52.020;5.536;2022-11-11T10:35:26;11.40;99.90
67777;DHT22;54576;52.020;5.536;2022-11-11T10:40:52;11.50;99.90
67777;DHT22;54576;52.020;5.536;2022-11-11T10:43:26;11.50;99.90
67777;DHT22;54576;52.020;5.536;2022-11-11T10:46:12;11.60;99.90
67777;DHT22;54576;52.020;5.536;2022-11-11T10:48:50;11.60;99.90
67777;DHT22;54576;52.020;5.536;2022-11-11T10:51:18;11.70;99.90
67777;DHT22;54576;52.020;5.536;2022-11-11T10:54:06;11.70;99.90
67777;DHT22;54576;52.020;5.536;2022-11-11T10:56:39;11.70;99.90
67777;DHT22;54576;52.020;5.536;2022-11-11T11:02:30;11.80;99.90
67777;DHT22;54576;52.020;5.536;2022-11-11T11:05:26;11.80;99.90
67777;DHT22;54576;52.020;5.536;2022-11-11T11:08:07;11.80;99.90
67777;DHT22;54576;52.020;5.536;2022-11-11T11:10:40;11.80;99.90
67777;DHT22;54576;52.020;5.536;2022-11-11T11:13:20;11.90;99.90
67777;DHT22;54576;52.020;5.536;2022-11-11T11:15:54;11.90;99.90
67777;DHT22;54576;52.020;5.536;2022-11-11T11:18:20;12.00;99.90
67777;DHT22;54576;52.020;5.536;2022-11-11T11:21:04;12.00;99.90
67777;DHT22;54576;52.020;5.536;2022-11-11T11:23:47;12.00;99.90
67777;DHT22;54576;52.020;5.536;2022-11-11T11:26:14;12.00;99.90
67777;DHT22;54576;52.020;5.536;2022-11-11T11:28:58;12.10;99.90
67777;DHT22;54576;52.020;5.536;2022-11-11T11:31:36;12.10;99.90
67777;DHT22;54576;52.020;5.536;2022-11-11T11:34:02;12.10;99.90
67777;DHT22;54576;52.020;5.536;2022-11-11T11:36:27;12.20;99.90
67777;DHT22;54576;52.020;5.536;2022-11-11T11:38:53;12.20;99.90
67777;DHT22;54576;52.020;5.536;2022-11-11T11:41:44;12.20;99.90
67777;DHT22;54576;52.020;5.536;2022-11-11T11:44:25;12.20;99.90
67777;DHT22;54576;52.020;5.536;2022-11-11T11:46:54;12.10;99.90
67777;DHT22;54576;52.020;5.536;2022-11-11T11:49:43;12.10;99.90
67777;DHT22;54576;52.020;5.536;2022-11-11T11:55:00;12.20;99.90
67777;DHT22;54576;52.020;5.536;2022-11-11T11:57:52;12.10;99.90
67777;DHT22;54576;52.020;5.536;2022-11-11T12:05:58;12.10;99.90
67777;DHT22;54576;52.020;5.536;2022-11-11T12:08:46;12.10;99.90
67777;DHT22;54576;52.020;5.536;2022-11-11T12:22:28;12.20;99.90
67777;DHT22;54576;52.020;5.536;2022-11-11T12:25:51;12.20;99.90
67777;DHT22;54576;52.020;5.536;2022-11-11T12:34:05;12.30;99.90
67777;DHT22;54576;52.020;5.536;2022-11-11T12:36:57;12.40;99.90
67777;DHT22;54576;52.020;5.536;2022-11-11T12:39:47;12.40;99.90
67777;DHT22;54576;52.020;5.536;2022-11-11T12:45:26;12.40;99.90
67777;DHT22;54576;52.020;5.536;2022-11-11T12:50:37;12.50;99.90
67777;DHT22;54576;52.020;5.536;2022-11-11T12:53:20;12.50;99.90
67777;DHT22;54576;52.020;5.536;2022-11-11T12:58:47;12.50;99.90
67777;DHT22;54576;52.020;5.536;2022-11-11T13:04:32;12.50;99.90
67777;DHT22;54576;52.020;5.536;2022-11-11T13:10:53;12.60;99.90
67777;DHT22;54576;52.020;5.536;2022-11-11T13:13:21;12.60;99.90
67777;DHT22;54576;52.020;5.536;2022-11-11T13:15:49;12.70;99.90
67777;DHT22;54576;52.020;5.536;2022-11-11T13:18:44;12.70;99.90
67777;DHT22;54576;52.020;5.536;2022-11-11T13:21:25;12.70;99.90
67777;DHT22;54576;52.020;5.536;2022-11-11T13:23:54;12.70;99.90
67777;DHT22;54576;52.020;5.536;2022-11-11T13:26:31;12.70;99.90
67777;DHT22;54576;52.020;5.536;2022-11-11T13:29:12;12.70;99.90
67777;DHT22;54576;52.020;5.536;2022-11-11T13:31:40;12.80;99.90
67777;DHT22;54576;52.020;5.536;2022-11-11T13:34:12;12.70;99.90
67777;DHT22;54576;52.020;5.536;2022-11-11T13:36:45;12.70;99.90
67777;DHT22;54576;52.020;5.536;2022-11-11T13:41:51;12.70;99.90
67777;DHT22;54576;52.020;5.536;2022-11-11T13:44:24;12.70;99.90
67777;DHT22;54576;52.020;5.536;2022-11-11T13:47:04;12.70;99.90
67777;DHT22;54576;52.020;5.536;2022-11-11T13:49:44;12.70;99.90
67777;DHT22;54576;52.020;5.536;2022-11-11T13:55:00;12.70;99.90
67777;DHT22;54576;52.020;5.536;2022-11-11T13:57:27;12.60;99.90
67777;DHT22;54576;52.020;5.536;2022-11-11T14:00:31;12.70;99.90
67777;DHT22;54576;52.020;5.536;2022-11-11T14:05:44;12.70;99.90
67777;DHT22;54576;52.020;5.536;2022-11-11T14:11:32;12.70;99.90
67777;DHT22;54576;52.020;5.536;2022-11-11T14:17:04;12.70;99.90
67777;DHT22;54576;52.020;5.536;2022-11-11T14:19:30;12.70;99.90
67777;DHT22;54576;52.020;5.536;2022-11-11T14:22:02;12.70;99.90
67777;DHT22;54576;52.020;5.536;2022-11-11T14:24:43;12.70;99.90
67777;DHT22;54576;52.020;5.536;2022-11-11T14:35:35;12.70;99.90
67777;DHT22;54576;52.020;5.536;2022-11-11T14:40:43;12.60;99.90
67777;DHT22;54576;52.020;5.536;2022-11-11T14:43:39;12.60;99.90
67777;DHT22;54576;52.020;5.536;2022-11-11T14:46:07;12.60;99.90
67777;DHT22;54576;52.020;5.536;2022-11-11T14:48:53;12.60;99.90
67777;DHT22;54576;52.020;5.536;2022-11-11T14:51:47;12.50;99.90
67777;DHT22;54576;52.020;5.536;2022-11-11T14:54:28;12.50;99.90
67777;DHT22;54576;52.020;5.536;2022-11-11T14:57:05;12.50;99.90
67777;DHT22;54576;52.020;5.536;2022-11-11T14:59:31;12.40;99.90
67777;DHT22;54576;52.020;5.536;2022-11-11T15:01:58;12.40;99.90
67777;DHT22;54576;52.020;5.536;2022-11-11T15:04:25;12.40;99.90
67777;DHT22;54576;52.020;5.536;2022-11-11T15:06:59;12.30;99.90
67777;DHT22;54576;52.020;5.536;2022-11-11T15:09:50;12.30;99.90
67777;DHT22;54576;52.020;5.536;2022-11-11T15:12:58;12.30;99.90
67777;DHT22;54576;52.020;5.536;2022-11-11T15:15:56;12.20;99.90
67777;DHT22;54576;52.020;5.536;2022-11-11T15:21:27;12.10;99.90
67777;DHT22;54576;52.020;5.536;2022-11-11T15:29:38;11.90;99.90
67777;DHT22;54576;52.020;5.536;2022-11-11T15:32:22;11.80;99.90
67777;DHT22;54576;52.020;5.536;2022-11-11T15:35:01;11.80;99.90
67777;DHT22;54576;52.020;5.536;2022-11-11T15:37:31;11.70;99.90
67777;DHT22;54576;52.020;5.536;2022-11-11T15:39:57;11.70;99.90
67777;DHT22;54576;52.020;5.536;2022-11-11T15:42:31;11.60;99.90
67777;DHT22;54576;52.020;5.536;2022-11-11T15:45:01;11.60;99.90
67777;DHT22;54576;52.020;5.536;2022-11-11T15:47:29;11.50;99.90
67777;DHT22;54576;52.020;5.536;2022-11-11T15:49:59;11.40;99.90
67777;DHT22;54576;52.020;5.536;2022-11-11T15:52:35;11.40;99.90
67777;DHT22;54576;52.020;5.536;2022-11-11T15:55:18;11.40;99.90
67777;DHT22;54576;52.020;5.536;2022-11-11T15:57:44;11.30;99.90
67777;DHT22;54576;52.020;5.536;2022-11-11T16:00:29;11.30;99.90
67777;DHT22;54576;52.020;5.536;2022-11-11T16:02:56;11.20;99.90
67777;DHT22;54576;52.020;5.536;2022-11-11T16:05:26;11.20;99.90
67777;DHT22;54576;52.020;5.536;2022-11-11T16:08:01;11.10;99.90
67777;DHT22;54576;52.020;5.536;2022-11-11T16:10:31;11.10;99.90
67777;DHT22;54576;52.020;5.536;2022-11-11T16:13:18;11.10;99.90
67777;DHT22;54576;52.020;5.536;2022-11-11T16:15:50;11.00;99.90
67777;DHT22;54576;52.020;5.536;2022-11-11T16:18:22;11.00;99.90
67777;DHT22;54576;52.020;5.536;2022-11-11T16:23:37;11.00;99.90
67777;DHT22;54576;52.020;5.536;2022-11-11T16:33:49;10.60;99.90
67777;DHT22;54576;52.020;5.536;2022-11-11T16:36:15;10.60;99.90
67777;DHT22;54576;52.020;5.536;2022-11-11T16:38:40;10.60;99.90
67777;DHT22;54576;52.020;5.536;2022-11-11T16:41:27;10.50;99.90
67777;DHT22;54576;52.020;5.536;2022-11-11T16:43:55;10.40;99.90
67777;DHT22;54576;52.020;5.536;2022-11-11T16:46:38;10.40;99.90
67777;DHT22;54576;52.020;5.536;2022-11-11T16:51:47;10.20;99.90
67777;DHT22;54576;52.020;5.536;2022-11-11T16:54:26;10.20;99.90
67777;DHT22;54576;52.020;5.536;2022-11-11T16:56:54;10.10;99.90
67777;DHT22;54576;52.020;5.536;2022-11-11T16:59:46;10.00;99.90
67777;DHT22;54576;52.020;5.536;2022-11-11T17:02:21;9.90;99.90
67777;DHT22;54576;52.020;5.536;2022-11-11T17:04:49;9.90;99.90
67777;DHT22;54576;52.020;5.536;2022-11-11T17:07:33;9.80;99.90
67777;DHT22;54576;52.020;5.536;2022-11-11T17:10:13;9.70;99.90
67777;DHT22;54576;52.020;5.536;2022-11-11T17:12:41;9.70;99.90
67777;DHT22;54576;52.020;5.536;2022-11-11T17:15:09;9.60;99.90
67777;DHT22;54576;52.020;5.536;2022-11-11T17:17:36;9.60;99.90
67777;DHT22;54576;52.020;5.536;2022-11-11T17:20:12;9.50;99.90
67777;DHT22;54576;52.020;5.536;2022-11-11T17:22:47;9.40;99.90
67777;DHT22;54576;52.020;5.536;2022-11-11T17:25:14;9.40;99.90
67777;DHT22;54576;52.020;5.536;2022-11-11T17:27:39;9.30;99.90
67777;DHT22;54576;52.020;5.536;2022-11-11T17:30:07;9.20;99.90
67777;DHT22;54576;52.020;5.536;2022-11-11T17:32:33;9.20;99.90
67777;DHT22;54576;52.020;5.536;2022-11-11T17:34:59;9.10;99.90
67777;DHT22;54576;52.020;5.536;2022-11-11T17:37:24;9.10;99.90
67777;DHT22;54576;52.020;5.536;2022-11-11T17:39:50;9.00;99.90
67777;DHT22;54576;52.020;5.536;2022-11-11T17:42:16;8.90;99.90
67777;DHT22;54576;52.020;5.536;2022-11-11T17:44:41;8.80;99.90
67777;DHT22;54576;52.020;5.536;2022-11-11T17:47:07;8.70;99.90
67777;DHT22;54576;52.020;5.536;2022-11-11T17:49:32;8.70;99.90
67777;DHT22;54576;52.020;5.536;2022-11-11T17:51:58;8.60;99.90
67777;DHT22;54576;52.020;5.536;2022-11-11T17:54:23;8.60;99.90
67777;DHT22;54576;52.020;5.536;2022-11-11T17:56:52;8.50;99.90
67777;DHT22;54576;52.020;5.536;2022-11-11T17:59:19;8.50;99.90
67777;DHT22;54576;52.020;5.536;2022-11-11T18:01:46;8.50;99.90
67777;DHT22;54576;52.020;5.536;2022-11-11T18:04:13;8.40;99.90
67777;DHT22;54576;52.020;5.536;2022-11-11T18:06:38;8.40;99.90